createdAt,value
2023-05-09T00:00:03.949Z,97.23
2023-05-09T00:02:21.297Z,97.88
2023-05-09T00:04:39.110Z,96.85
2023-05-09T00:06:56.493Z,97.73
2023-05-09T00:09:14.243Z,97.48
2023-05-09T00:11:31.594Z,97.47
2023-05-09T00:13:48.912Z,98.57
2023-05-09T00:16:06.267Z,98.43
2023-05-09T00:18:24.997Z,97.51
2023-05-09T00:20:42.256Z,98.25
2023-05-09T00:22:59.857Z,98.88
2023-05-09T00:25:17.363Z,98.21
2023-05-09T00:27:34.741Z,98.68
2023-05-09T00:29:51.785Z,98.39
2023-05-09T00:32:08.837Z,99.16
2023-05-09T00:34:26.173Z,98.51
2023-05-09T00:36:44.397Z,98.78
2023-05-09T00:39:01.627Z,98.52
2023-05-09T00:41:19.265Z,98.73
2023-05-09T00:43:36.203Z,98.70
2023-05-09T00:45:53.919Z,97.51
2023-05-09T00:48:12.601Z,98.89
2023-05-09T00:50:30.294Z,99.09
2023-05-09T00:52:47.627Z,99.33
2023-05-09T00:55:04.566Z,99.72
2023-05-09T00:57:21.810Z,98.30
2023-05-09T00:59:40.043Z,99.74
2023-05-09T01:01:57.721Z,98.98
2023-05-09T01:04:14.998Z,98.51
2023-05-09T01:06:32.305Z,98.88
2023-05-09T01:08:49.285Z,99.38
2023-05-09T01:11:06.680Z,99.59
2023-05-09T01:13:23.733Z,98.00
2023-05-09T01:15:41.525Z,97.91
2023-05-09T01:17:58.921Z,99.47
2023-05-09T01:20:16.313Z,100.00
2023-05-09T01:22:34.019Z,99.37
2023-05-09T01:24:51.245Z,99.94
2023-05-09T01:27:08.881Z,100.00
2023-05-09T01:29:26.599Z,99.60
2023-05-09T01:31:44.352Z,99.82
2023-05-09T01:34:01.392Z,99.73
2023-05-09T01:36:18.751Z,99.28
2023-05-09T01:38:36.976Z,99.21
2023-05-09T01:40:54.670Z,100.00
2023-05-09T01:43:12.011Z,99.67
2023-05-09T01:45:29.264Z,99.26
2023-05-09T01:47:47.148Z,100.00
2023-05-09T01:50:04.184Z,99.93
2023-05-09T01:52:21.810Z,99.40
2023-05-09T01:54:39.126Z,99.90
2023-05-09T01:56:56.177Z,99.87
2023-05-09T01:59:13.457Z,99.71
2023-05-09T02:01:30.735Z,98.97
2023-05-09T02:03:47.966Z,99.54
2023-05-09T02:06:06.193Z,98.33
2023-05-09T02:08:23.515Z,99.23
2023-05-09T02:10:40.831Z,99.63
2023-05-09T02:12:58.156Z,99.70
2023-05-09T02:15:15.237Z,98.78
2023-05-09T02:17:33.125Z,100.00
2023-05-09T02:19:50.825Z,100.00
2023-05-09T02:22:08.190Z,99.72
2023-05-09T02:24:25.554Z,99.65
2023-05-09T02:26:42.413Z,100.00
2023-05-09T02:28:59.732Z,100.00
2023-05-09T02:31:17.053Z,100.00
2023-05-09T02:33:34.322Z,99.93
2023-05-09T02:35:51.733Z,100.00
2023-05-09T02:38:08.666Z,100.00
2023-05-09T02:40:26.898Z,99.52
2023-05-09T02:42:44.177Z,100.00
2023-05-09T02:45:01.452Z,100.00
2023-05-09T02:47:18.716Z,100.00
2023-05-09T02:49:35.576Z,100.00
2023-05-09T02:51:52.890Z,99.86
2023-05-09T02:54:10.783Z,100.00
2023-05-09T02:56:28.048Z,100.00
2023-05-09T02:58:46.307Z,99.96
2023-05-09T03:01:03.612Z,99.26
2023-05-09T03:03:20.684Z,100.00
2023-05-09T03:05:38.355Z,100.00
2023-05-09T03:07:55.640Z,99.43
2023-05-09T03:10:12.964Z,100.00
2023-05-09T03:12:30.273Z,100.00
2023-05-09T03:14:48.490Z,99.91
2023-05-09T03:17:05.820Z,100.00
2023-05-09T03:19:24.116Z,100.00
2023-05-09T03:21:41.343Z,100.00
2023-05-09T03:23:59.015Z,100.00
2023-05-09T03:26:16.630Z,99.14
2023-05-09T03:28:34.950Z,99.61
2023-05-09T03:30:51.923Z,99.39
2023-05-09T03:33:09.267Z,100.00
2023-05-09T03:35:26.907Z,98.75
2023-05-09T03:37:44.544Z,100.00
2023-05-09T03:40:01.798Z,99.71
2023-05-09T03:42:19.671Z,99.42
2023-05-09T03:44:37.335Z,99.92
2023-05-09T03:46:55.055Z,99.81
2023-05-09T03:49:12.396Z,100.00
2023-05-09T03:51:30.626Z,100.00
2023-05-09T03:53:47.866Z,100.00
2023-05-09T03:56:05.121Z,100.00
2023-05-09T03:58:23.497Z,100.00
2023-05-09T04:00:40.815Z,100.00
2023-05-09T04:02:58.609Z,99.83
2023-05-09T04:05:16.662Z,100.00
2023-05-09T04:07:34.301Z,100.00
2023-05-09T04:09:51.611Z,100.00
2023-05-09T04:12:08.863Z,100.00
2023-05-09T04:14:26.188Z,100.00
2023-05-09T04:16:44.411Z,100.00
2023-05-09T04:19:01.838Z,100.00
2023-05-09T04:21:19.177Z,100.00
2023-05-09T04:23:36.438Z,100.00
2023-05-09T04:25:53.674Z,100.00
2023-05-09T04:28:10.605Z,100.00
2023-05-09T04:30:27.930Z,100.00
2023-05-09T04:32:45.380Z,100.00
2023-05-09T04:35:02.752Z,100.00
2023-05-09T04:37:20.059Z,100.00
2023-05-09T04:39:36.994Z,100.00
2023-05-09T04:41:55.301Z,100.00
2023-05-09T04:44:13.609Z,100.00
2023-05-09T04:46:30.957Z,100.00
2023-05-09T04:48:48.452Z,100.00
2023-05-09T04:51:05.765Z,100.00
2023-05-09T04:53:23.101Z,100.00
2023-05-09T04:55:40.394Z,100.00
2023-05-09T04:57:57.460Z,100.00
2023-05-09T05:00:14.963Z,100.00
2023-05-09T05:02:32.254Z,100.00
2023-05-09T05:04:50.575Z,100.00
2023-05-09T05:07:07.936Z,100.00
2023-05-09T05:09:25.231Z,99.92
2023-05-09T05:11:53.203Z,100.00
2023-05-09T05:14:15.902Z,100.00
2023-05-09T05:16:33.028Z,100.00
2023-05-09T05:18:50.036Z,100.00
2023-05-09T05:21:07.739Z,100.00
2023-05-09T05:23:25.072Z,100.00
2023-05-09T05:25:42.407Z,100.00
2023-05-09T05:27:59.643Z,100.00
2023-05-09T05:30:16.929Z,100.00
2023-05-09T05:32:34.300Z,100.00
2023-05-09T05:34:51.276Z,99.88
2023-05-09T05:37:09.594Z,99.78
2023-05-09T05:39:26.502Z,99.87
2023-05-09T05:41:44.838Z,99.65
2023-05-09T05:44:02.052Z,99.93
2023-05-09T05:46:19.495Z,99.70
2023-05-09T05:48:36.872Z,100.00
2023-05-09T05:50:54.083Z,100.00
2023-05-09T05:53:12.391Z,100.00
2023-05-09T05:55:29.729Z,100.00
2023-05-09T05:57:47.414Z,100.00
2023-05-09T06:00:04.707Z,100.00
2023-05-09T06:02:22.599Z,99.65
2023-05-09T06:04:40.062Z,99.08
2023-05-09T06:06:58.098Z,99.10
2023-05-09T06:09:15.441Z,98.92
2023-05-09T06:11:33.198Z,99.14
2023-05-09T06:13:50.309Z,98.70
2023-05-09T06:16:18.029Z,99.60
2023-05-09T06:18:37.062Z,99.71
2023-05-09T06:20:54.366Z,99.52
2023-05-09T06:23:12.052Z,99.21
2023-05-09T06:25:31.211Z,99.22
2023-05-09T06:27:48.445Z,99.84
2023-05-09T06:30:14.133Z,98.96
2023-05-09T06:32:41.767Z,98.55
2023-05-09T06:34:59.456Z,98.62
2023-05-09T06:37:16.733Z,97.47
2023-05-09T06:39:33.947Z,97.15
2023-05-09T06:41:50.923Z,96.89
2023-05-09T06:44:08.180Z,95.77
2023-05-09T06:46:25.257Z,96.10
2023-05-09T06:48:42.539Z,93.51
2023-05-09T06:50:59.862Z,94.95
2023-05-09T06:53:18.171Z,95.16
2023-05-09T06:55:35.468Z,94.31
2023-05-09T06:57:52.547Z,94.20
2023-05-09T07:00:10.654Z,93.80
2023-05-09T07:02:27.980Z,91.54
2023-05-09T07:04:45.430Z,90.22
2023-05-09T07:07:03.698Z,91.20
2023-05-09T07:09:21.047Z,89.31
2023-05-09T07:11:39.041Z,91.37
2023-05-09T07:13:56.606Z,89.78
2023-05-09T07:16:13.959Z,89.13
2023-05-09T07:18:31.334Z,90.38
2023-05-09T07:20:49.289Z,87.69
2023-05-09T07:23:06.289Z,86.74
2023-05-09T07:25:23.252Z,84.67
2023-05-09T07:27:40.578Z,85.73
2023-05-09T07:29:57.475Z,85.14
2023-05-09T07:32:17.214Z,85.94
2023-05-09T07:34:35.000Z,86.87
2023-05-09T07:36:53.040Z,86.37
2023-05-09T07:39:10.374Z,86.55
2023-05-09T07:41:27.628Z,87.21
2023-05-09T07:43:44.889Z,85.74
2023-05-09T07:46:02.235Z,88.16
2023-05-09T07:48:19.541Z,86.10
2023-05-09T07:50:36.623Z,85.69
2023-05-09T07:52:53.586Z,84.83
2023-05-09T07:55:11.364Z,84.62
2023-05-09T07:57:29.181Z,83.52
2023-05-09T07:59:46.908Z,85.03
2023-05-09T08:02:04.886Z,83.09
2023-05-09T08:04:22.284Z,84.31
2023-05-09T08:06:39.577Z,82.46
2023-05-09T08:08:57.166Z,82.26
2023-05-09T08:11:14.985Z,82.40
2023-05-09T08:13:32.906Z,82.02
2023-05-09T08:15:50.555Z,80.86
2023-05-09T08:18:07.953Z,81.63
2023-05-09T08:20:25.328Z,79.86
2023-05-09T08:22:43.557Z,79.25
2023-05-09T08:25:01.825Z,79.36
2023-05-09T08:27:19.211Z,79.78
2023-05-09T08:29:37.564Z,78.95
2023-05-09T08:31:54.926Z,78.54
2023-05-09T08:34:13.507Z,78.19
2023-05-09T08:36:30.812Z,78.04
2023-05-09T08:38:49.288Z,78.58
2023-05-09T08:41:06.977Z,76.82
2023-05-09T08:43:26.425Z,75.91
2023-05-09T08:45:44.241Z,75.26
2023-05-09T08:48:04.263Z,74.06
2023-05-09T08:50:22.068Z,74.38
2023-05-09T08:52:41.351Z,71.96
2023-05-09T08:54:59.422Z,70.91
2023-05-09T08:57:16.824Z,69.91
2023-05-09T08:59:34.148Z,69.63
2023-05-09T09:01:55.788Z,69.32
2023-05-09T09:04:14.766Z,69.34
2023-05-09T09:06:32.714Z,70.40
2023-05-09T09:08:51.184Z,69.14
2023-05-09T09:11:08.476Z,66.88
2023-05-09T09:13:26.043Z,66.86
2023-05-09T09:15:43.440Z,67.82
2023-05-09T09:18:01.016Z,68.10
2023-05-09T09:20:18.327Z,68.95
2023-05-09T09:22:35.259Z,68.38
2023-05-09T09:24:52.149Z,66.91
2023-05-09T09:27:09.468Z,65.75
2023-05-09T09:29:26.802Z,64.24
2023-05-09T09:31:44.153Z,65.42
2023-05-09T09:34:01.476Z,64.78
2023-05-09T09:36:18.711Z,64.83
2023-05-09T09:38:36.971Z,65.31
2023-05-09T09:40:54.284Z,63.97
2023-05-09T09:43:11.539Z,64.85
2023-05-09T09:45:28.871Z,63.48
2023-05-09T09:47:46.671Z,63.28
2023-05-09T09:50:03.943Z,64.38
2023-05-09T09:52:21.171Z,62.27
2023-05-09T09:54:38.207Z,62.98
2023-05-09T09:56:57.301Z,62.39
2023-05-09T09:59:14.576Z,61.44
2023-05-09T10:01:31.549Z,63.20
2023-05-09T10:03:48.561Z,61.96
2023-05-09T10:06:05.537Z,62.19
2023-05-09T10:08:22.796Z,63.04
2023-05-09T10:10:41.105Z,61.08
2023-05-09T10:12:58.482Z,61.95
2023-05-09T10:15:16.273Z,61.61
2023-05-09T10:17:34.090Z,60.81
2023-05-09T10:19:52.382Z,61.48
2023-05-09T10:22:09.326Z,59.72
2023-05-09T10:24:27.564Z,61.40
2023-05-09T10:26:44.856Z,58.88
2023-05-09T10:29:03.120Z,58.93
2023-05-09T10:31:20.399Z,57.91
2023-05-09T10:33:37.410Z,60.08
2023-05-09T10:35:54.648Z,58.11
2023-05-09T10:38:11.710Z,57.44
2023-05-09T10:40:29.365Z,57.97
2023-05-09T10:42:46.604Z,60.66
2023-05-09T10:45:03.899Z,60.95
2023-05-09T10:47:21.198Z,61.67
2023-05-09T10:49:38.291Z,61.81
2023-05-09T10:51:55.382Z,62.45
2023-05-09T10:54:12.715Z,59.55
2023-05-09T10:56:29.775Z,61.12
2023-05-09T10:58:46.728Z,59.33
2023-05-09T11:01:03.978Z,59.71
2023-05-09T11:03:21.364Z,61.70
2023-05-09T11:05:38.752Z,60.46
2023-05-09T11:07:56.996Z,60.38
2023-05-09T11:10:14.027Z,60.05
2023-05-09T11:12:31.396Z,59.23
2023-05-09T11:14:48.274Z,61.64
2023-05-09T11:17:05.680Z,60.13
2023-05-09T11:19:24.027Z,60.27
2023-05-09T11:21:41.446Z,62.73
2023-05-09T11:23:58.374Z,60.62
2023-05-09T11:26:16.750Z,59.63
2023-05-09T11:28:33.979Z,59.39
2023-05-09T11:30:51.237Z,62.25
2023-05-09T11:33:08.900Z,60.34
2023-05-09T11:35:26.302Z,60.23
2023-05-09T11:37:44.541Z,59.96
2023-05-09T11:40:01.546Z,58.67
2023-05-09T11:42:18.774Z,58.29
2023-05-09T11:44:36.146Z,58.90
2023-05-09T11:46:53.472Z,56.60
2023-05-09T11:49:12.102Z,56.52
2023-05-09T11:51:29.647Z,55.99
2023-05-09T11:53:46.938Z,57.30
2023-05-09T11:56:04.214Z,56.94
2023-05-09T11:58:21.564Z,55.66
2023-05-09T12:00:38.575Z,57.35
2023-05-09T12:02:55.870Z,57.56
2023-05-09T12:05:14.180Z,57.08
2023-05-09T12:07:31.700Z,56.01
2023-05-09T12:09:48.747Z,57.56
2023-05-09T12:12:06.389Z,57.63
2023-05-09T12:14:23.755Z,56.85
2023-05-09T12:16:40.898Z,56.86
2023-05-09T12:18:58.975Z,55.68
2023-05-09T12:21:17.296Z,55.10
2023-05-09T12:23:34.616Z,54.78
2023-05-09T12:25:51.967Z,52.98
2023-05-09T12:28:08.972Z,54.36
2023-05-09T12:30:26.928Z,53.83
2023-05-09T12:32:44.866Z,53.92
2023-05-09T12:35:02.917Z,55.36
2023-05-09T12:37:20.218Z,54.73
2023-05-09T12:39:38.273Z,53.63
2023-05-09T12:42:01.548Z,54.20
2023-05-09T12:44:19.223Z,52.99
2023-05-09T12:46:37.674Z,54.49
2023-05-09T12:48:56.099Z,54.73
2023-05-09T12:51:13.403Z,54.85
2023-05-09T12:53:30.655Z,55.46
2023-05-09T12:55:47.719Z,54.23
2023-05-09T12:58:05.424Z,53.30
2023-05-09T13:00:22.696Z,53.18
2023-05-09T13:02:40.136Z,53.34
2023-05-09T13:04:58.491Z,54.03
2023-05-09T13:07:15.744Z,54.49
2023-05-09T13:09:32.712Z,54.56
2023-05-09T13:11:49.925Z,55.02
2023-05-09T13:14:07.227Z,54.24
2023-05-09T13:16:24.253Z,55.12
2023-05-09T13:18:41.583Z,56.37
2023-05-09T13:20:58.932Z,56.99
2023-05-09T13:23:16.242Z,55.18
2023-05-09T13:25:34.613Z,54.72
2023-05-09T13:27:51.826Z,56.57
2023-05-09T13:30:09.109Z,55.50
2023-05-09T13:32:26.395Z,55.47
2023-05-09T13:34:43.735Z,56.00
2023-05-09T13:37:01.443Z,56.06
2023-05-09T13:39:18.345Z,55.70
2023-05-09T13:41:37.525Z,55.89
2023-05-09T13:43:55.422Z,57.21
2023-05-09T13:46:12.722Z,56.29
2023-05-09T13:48:31.326Z,56.92
2023-05-09T13:50:49.061Z,56.87
2023-05-09T13:53:06.352Z,56.21
2023-05-09T13:55:23.301Z,57.63
2023-05-09T13:57:40.596Z,58.07
2023-05-09T14:00:00.170Z,58.12
2023-05-09T14:02:17.122Z,58.57
2023-05-09T14:04:34.049Z,57.48
2023-05-09T14:06:51.418Z,58.35
2023-05-09T14:09:09.356Z,57.82
2023-05-09T14:11:26.321Z,59.52
2023-05-09T14:13:46.034Z,59.05
2023-05-09T14:16:03.360Z,59.12
2023-05-09T14:18:21.254Z,59.18
2023-05-09T14:20:38.743Z,58.54
2023-05-09T14:22:57.041Z,61.15
2023-05-09T14:25:14.373Z,60.58
2023-05-09T14:27:31.319Z,60.30
2023-05-09T14:29:48.393Z,61.92
2023-05-09T14:32:05.714Z,63.53
2023-05-09T14:34:23.008Z,64.35
2023-05-09T14:36:41.009Z,65.81
2023-05-09T14:38:57.941Z,66.40
2023-05-09T14:41:14.860Z,68.88
2023-05-09T14:43:31.694Z,69.37
2023-05-09T14:45:48.959Z,69.02
2023-05-09T14:48:06.062Z,68.83
2023-05-09T14:50:23.077Z,72.76
2023-05-09T14:52:41.262Z,73.14
2023-05-09T14:54:58.571Z,74.35
2023-05-09T14:57:15.865Z,75.78
2023-05-09T14:59:34.744Z,76.70
2023-05-09T15:01:53.517Z,76.54
2023-05-09T15:04:10.847Z,77.17
2023-05-09T15:06:28.222Z,77.22
2023-05-09T15:08:46.492Z,77.15
2023-05-09T15:11:04.182Z,77.60
2023-05-09T15:13:21.522Z,78.70
2023-05-09T15:15:38.901Z,79.00
2023-05-09T15:17:55.849Z,78.80
2023-05-09T15:20:13.514Z,79.76
2023-05-09T15:22:31.284Z,83.30
2023-05-09T15:24:48.381Z,83.99
2023-05-09T15:27:05.413Z,86.08
2023-05-09T15:29:22.613Z,85.44
2023-05-09T15:31:40.819Z,86.42
2023-05-09T15:33:58.493Z,86.36
2023-05-09T15:36:15.736Z,86.43
2023-05-09T15:38:33.953Z,86.43
2023-05-09T15:40:51.218Z,85.27
2023-05-09T15:43:09.578Z,86.24
2023-05-09T15:45:26.897Z,86.29
2023-05-09T15:47:44.024Z,86.40
2023-05-09T15:50:01.379Z,89.57
2023-05-09T15:52:18.666Z,88.74
2023-05-09T15:54:36.318Z,91.62
2023-05-09T15:56:53.379Z,91.99
2023-05-09T15:59:10.582Z,92.29
2023-05-09T16:01:27.679Z,89.63
2023-05-09T16:03:45.963Z,92.66
2023-05-09T16:06:03.447Z,92.57
2023-05-09T16:08:20.510Z,93.43
2023-05-09T16:10:37.790Z,92.09
2023-05-09T16:12:55.137Z,90.92
2023-05-09T16:15:12.788Z,91.91
2023-05-09T16:17:30.137Z,93.94
2023-05-09T16:19:47.159Z,93.02
2023-05-09T16:22:04.400Z,93.81
2023-05-09T16:24:21.631Z,94.57
2023-05-09T16:26:38.913Z,93.86
2023-05-09T16:28:56.272Z,94.50
2023-05-09T16:31:13.636Z,94.19
2023-05-09T16:33:30.902Z,94.24
2023-05-09T16:35:49.170Z,94.79
2023-05-09T16:38:07.610Z,95.24
2023-05-09T16:40:27.346Z,94.13
2023-05-09T16:42:44.575Z,95.79
2023-05-09T16:45:01.861Z,93.87
2023-05-09T16:47:19.516Z,95.79
2023-05-09T16:49:36.500Z,94.41
2023-05-09T16:51:53.710Z,95.57
2023-05-09T16:54:11.095Z,93.22
2023-05-09T16:56:28.081Z,94.50
2023-05-09T16:58:45.333Z,94.27
2023-05-09T17:01:02.292Z,94.81
2023-05-09T17:03:19.391Z,96.44
2023-05-09T17:05:36.531Z,96.70
2023-05-09T17:07:53.754Z,95.49
2023-05-09T17:10:11.030Z,95.88
2023-05-09T17:12:28.304Z,97.31
2023-05-09T17:14:45.577Z,97.06
2023-05-09T17:17:02.896Z,96.00
2023-05-09T17:19:21.137Z,96.61
2023-05-09T17:21:38.100Z,95.35
2023-05-09T17:23:55.365Z,93.21
2023-05-09T17:26:12.412Z,92.93
2023-05-09T17:28:29.367Z,92.61
2023-05-09T17:30:47.406Z,89.72
2023-05-09T17:33:04.825Z,89.40
2023-05-09T17:35:22.273Z,91.04
2023-05-09T17:37:39.510Z,91.62
2023-05-09T17:39:56.846Z,92.31
2023-05-09T17:42:14.199Z,91.62
2023-05-09T17:44:31.502Z,92.00
2023-05-09T17:46:48.772Z,90.96
2023-05-09T17:49:06.953Z,91.54
2023-05-09T17:51:24.255Z,91.04
2023-05-09T17:53:41.530Z,92.14
2023-05-09T17:55:58.813Z,92.46
2023-05-09T17:58:16.044Z,93.00
2023-05-09T18:00:33.412Z,92.59
2023-05-09T18:02:50.993Z,92.92
2023-05-09T18:05:08.383Z,94.30
2023-05-09T18:07:25.575Z,93.57
2023-05-09T18:09:43.857Z,94.00
2023-05-09T18:12:01.139Z,94.14
2023-05-09T18:14:18.286Z,95.13
2023-05-09T18:16:35.695Z,94.62
2023-05-09T18:18:52.805Z,94.50
2023-05-09T18:21:11.176Z,95.53
2023-05-09T18:23:28.449Z,94.27
2023-05-09T18:25:46.370Z,96.08
2023-05-09T18:28:04.849Z,95.79
2023-05-09T18:30:22.544Z,95.54
2023-05-09T18:32:40.437Z,95.14
2023-05-09T18:34:57.394Z,94.21
2023-05-09T18:37:15.058Z,95.93
2023-05-09T18:39:33.013Z,95.44
2023-05-09T18:41:50.070Z,95.31
2023-05-09T18:44:07.420Z,96.05
2023-05-09T18:46:24.768Z,95.93
2023-05-09T18:48:42.651Z,95.94
2023-05-09T18:50:59.920Z,96.46
2023-05-09T18:53:17.144Z,95.88
2023-05-09T18:55:34.423Z,96.00
2023-05-09T18:57:52.715Z,95.48
2023-05-09T19:00:09.649Z,95.40
2023-05-09T19:02:26.958Z,96.31
2023-05-09T19:04:45.240Z,96.21
2023-05-09T19:07:02.590Z,95.98
2023-05-09T19:09:20.616Z,96.06
2023-05-09T19:11:37.904Z,96.10
2023-05-09T19:13:54.977Z,97.07
2023-05-09T19:16:12.334Z,97.14
2023-05-09T19:18:30.294Z,96.41
2023-05-09T19:20:47.222Z,95.97
2023-05-09T19:23:04.571Z,96.34
2023-05-09T19:25:21.796Z,96.08
2023-05-09T19:27:38.850Z,96.04
2023-05-09T19:29:56.779Z,95.04
2023-05-09T19:32:14.257Z,94.22
2023-05-09T19:34:31.534Z,94.38
2023-05-09T19:36:48.843Z,94.10
2023-05-09T19:39:07.106Z,93.74
2023-05-09T19:41:24.160Z,93.72
2023-05-09T19:43:41.109Z,93.63
2023-05-09T19:45:58.402Z,92.70
2023-05-09T19:48:16.486Z,92.63
2023-05-09T19:50:33.803Z,93.02
2023-05-09T19:52:51.164Z,92.54
2023-05-09T19:55:09.495Z,92.51
2023-05-09T19:57:26.760Z,92.32
2023-05-09T19:59:44.031Z,91.77
2023-05-09T20:02:00.967Z,92.05
2023-05-09T20:04:18.057Z,92.25
2023-05-09T20:06:34.988Z,91.93
2023-05-09T20:08:53.236Z,92.28
2023-05-09T20:11:10.590Z,92.16
2023-05-09T20:13:27.771Z,91.90
2023-05-09T20:15:45.386Z,90.88
2023-05-09T20:18:02.414Z,91.73
2023-05-09T20:20:19.848Z,91.58
2023-05-09T20:22:38.022Z,91.22
2023-05-09T20:24:54.927Z,91.86
2023-05-09T20:27:12.264Z,91.16
2023-05-09T20:29:30.644Z,91.92
2023-05-09T20:31:47.814Z,92.61
2023-05-09T20:34:05.280Z,92.17
2023-05-09T20:36:23.668Z,92.22
2023-05-09T20:38:40.698Z,92.83
2023-05-09T20:40:59.002Z,93.46
2023-05-09T20:43:16.247Z,93.67
2023-05-09T20:45:33.599Z,93.55
2023-05-09T20:47:50.848Z,94.55
2023-05-09T20:50:15.539Z,93.70
2023-05-09T20:52:32.977Z,94.92
2023-05-09T20:54:51.213Z,95.94
2023-05-09T20:57:09.546Z,95.29
2023-05-09T20:59:27.447Z,95.10
2023-05-09T21:01:44.681Z,95.49
2023-05-09T21:04:02.053Z,95.54
2023-05-09T21:06:19.381Z,96.13
2023-05-09T21:08:37.443Z,96.53
2023-05-09T21:10:55.662Z,95.89
2023-05-09T21:13:13.091Z,96.36
2023-05-09T21:15:30.465Z,96.44
2023-05-09T21:17:47.526Z,97.15
2023-05-09T21:20:04.581Z,97.15
2023-05-09T21:22:22.616Z,97.05
2023-05-09T21:24:39.871Z,96.56
2023-05-09T21:26:58.312Z,97.52
2023-05-09T21:29:15.322Z,97.27
2023-05-09T21:31:32.625Z,95.73
2023-05-09T21:33:50.223Z,96.60
2023-05-09T21:36:07.261Z,97.28
2023-05-09T21:38:24.494Z,95.88
2023-05-09T21:40:41.566Z,95.81
2023-05-09T21:42:58.968Z,97.01
2023-05-09T21:45:15.979Z,96.09
2023-05-09T21:47:33.330Z,97.19
2023-05-09T21:49:50.756Z,96.43
2023-05-09T21:52:08.424Z,95.30
2023-05-09T21:54:25.728Z,94.56
2023-05-09T21:56:42.963Z,95.35
2023-05-09T21:59:00.214Z,93.92
2023-05-09T22:01:17.547Z,94.11
2023-05-09T22:03:34.614Z,94.02
2023-05-09T22:05:52.045Z,93.84
2023-05-09T22:08:10.318Z,93.32
2023-05-09T22:10:27.539Z,93.36
2023-05-09T22:12:44.813Z,93.10
2023-05-09T22:15:02.042Z,93.99
2023-05-09T22:17:19.419Z,94.47
2023-05-09T22:19:37.674Z,95.65
2023-05-09T22:21:54.930Z,94.06
2023-05-09T22:24:12.189Z,95.41
2023-05-09T22:26:29.512Z,94.88
2023-05-09T22:28:46.377Z,95.72
2023-05-09T22:31:03.602Z,94.73
2023-05-09T22:33:20.761Z,95.63
2023-05-09T22:35:38.083Z,96.06
2023-05-09T22:37:55.423Z,95.83
2023-05-09T22:40:13.891Z,97.22
2023-05-09T22:42:32.096Z,97.25
2023-05-09T22:44:49.370Z,97.25
2023-05-09T22:47:06.630Z,97.78
2023-05-09T22:49:23.554Z,96.96
2023-05-09T22:51:40.804Z,98.02
2023-05-09T22:53:58.105Z,96.13
2023-05-09T22:56:15.077Z,95.67
2023-05-09T22:58:32.291Z,97.02
2023-05-09T23:00:49.376Z,96.23
2023-05-09T23:03:06.818Z,96.35
2023-05-09T23:05:24.635Z,96.66
2023-05-09T23:07:41.872Z,96.99
2023-05-09T23:09:59.837Z,97.03
2023-05-09T23:12:18.093Z,96.30
2023-05-09T23:14:35.020Z,96.66
2023-05-09T23:16:52.258Z,96.71
2023-05-09T23:19:09.263Z,97.80
2023-05-09T23:21:26.575Z,97.22
2023-05-09T23:23:43.818Z,95.99
2023-05-09T23:26:01.052Z,96.40
2023-05-09T23:28:18.307Z,96.36
2023-05-09T23:30:35.277Z,96.03
2023-05-09T23:32:52.978Z,97.44
2023-05-09T23:35:10.232Z,95.37
2023-05-09T23:37:29.002Z,95.96
2023-05-09T23:39:46.296Z,96.56
2023-05-09T23:42:03.540Z,95.67
2023-05-09T23:44:22.218Z,96.68
2023-05-09T23:46:39.578Z,97.76
2023-05-09T23:48:56.653Z,98.23
2023-05-09T23:51:13.938Z,97.74
2023-05-09T23:53:31.244Z,97.05
2023-05-09T23:55:48.478Z,96.47
2023-05-09T23:58:05.707Z,97.05
